Time;durP1;ratioP1;P1;durP2;ratioP2;P2;SDS_P1;SDS_P2;PMS_P1;PMS_P2;Temp;Humidity;BMP_temperature;BMP_pressure;BME280_temperature;BME280_humidity;BME280_pressure;Samples;Min_cycle;Max_cycle;Signal;HPM_P1;HPM_P2
2023/11/28 00:08:20;;;;;;;101.80;45.80;;;;;;;-1.92;100.00;97338.94;273447;1266;22206;-86
2023/11/28 00:14:22;;;;;;;101.60;46.20;;;;;;;-1.94;100.00;97326.98;273914;1266;22197;-86
2023/11/28 00:20:25;;;;;;;107.00;48.20;;;;;;;-1.96;100.00;97320.65;273939;1267;22266;-85
2023/11/28 00:27:08;;;;;;;106.90;48.60;;;;;;;-1.97;100.00;97316.09;269004;1265;6240774;-86
2023/11/28 00:33:51;;;;;;;98.80;46.30;;;;;;;-1.98;100.00;97307.31;274020;1266;22978;-86
2023/11/28 00:39:53;;;;;;;100.00;49.10;;;;;;;-2.03;100.00;97309.93;273915;1267;23096;-86
2023/11/28 00:46:11;;;;;;;105.20;49.70;;;;;;;-2.08;100.00;97309.65;273618;1267;24212;-85
2023/11/28 00:52:18;;;;;;;101.80;48.40;;;;;;;-2.12;100.00;97305.56;272838;1266;22454;-85
2023/11/28 00:59:05;;;;;;;100.00;48.00;;;;;;;-2.16;100.00;97296.46;274092;1266;22253;-85
2023/11/28 01:13:27;;;;;;;108.00;48.40;;;;;;;-2.21;100.00;97269.83;274223;1266;23339;-86
2023/11/28 01:21:02;;;;;;;108.80;50.90;;;;;;;-2.24;100.00;97258.30;273475;1267;22424;-84
2023/11/28 01:35:34;;;;;;;102.50;47.60;;;;;;;-2.30;100.00;97219.64;274247;1266;22242;-85
2023/11/28 01:41:56;;;;;;;92.60;45.10;;;;;;;-2.32;100.00;97213.69;273774;1266;22569;-86
2023/11/28 01:47:59;;;;;;;101.50;47.00;;;;;;;-2.34;100.00;97200.45;273576;1266;22627;-84
2023/11/28 01:54:19;;;;;;;93.40;45.70;;;;;;;-2.37;100.00;97194.16;273840;1266;23011;-84
2023/11/28 02:00:40;;;;;;;98.30;46.30;;;;;;;-2.38;100.00;97182.73;273747;1266;23494;-84
2023/11/28 02:07:25;;;;;;;96.10;46.50;;;;;;;-2.39;100.00;97167.06;273800;1266;22192;-86
2023/11/28 02:13:26;;;;;;;94.80;46.70;;;;;;;-2.39;100.00;97152.60;273357;1266;22574;-85
2023/11/28 02:19:28;;;;;;;85.70;43.50;;;;;;;-2.40;100.00;97138.71;272973;1266;22220;-85
2023/11/28 02:25:35;;;;;;;92.40;42.20;;;;;;;-2.41;100.00;97123.15;273948;1266;22216;-85
2023/11/28 02:32:13;;;;;;;91.20;42.20;;;;;;;-2.40;100.00;97113.59;273448;1249;102416;-84
2023/11/28 02:38:48;;;;;;;80.50;41.20;;;;;;;-2.42;100.00;97104.29;273688;1271;22208;-85
2023/11/28 02:44:49;;;;;;;86.90;40.60;;;;;;;-2.43;100.00;97092.30;273501;1268;23337;-84
2023/11/28 02:50:50;;;;;;;93.10;43.90;;;;;;;-2.42;100.00;97079.10;272103;1263;22415;-87
2023/11/28 02:56:51;;;;;;;87.50;39.20;;;;;;;-2.43;100.00;97063.45;273476;1268;23522;-84
2023/11/28 03:02:56;;;;;;;86.60;41.40;;;;;;;-2.45;100.00;97050.67;273609;1269;23198;-84
2023/11/28 03:08:57;;;;;;;81.20;40.10;;;;;;;-2.46;100.00;97045.14;273838;1270;22345;-86
2023/11/28 03:15:15;;;;;;;87.10;39.80;;;;;;;-2.44;100.00;97040.36;273855;1268;22237;-85
2023/11/28 03:21:42;;;;;;;73.80;36.80;;;;;;;-2.41;100.00;97041.45;272455;1269;22203;-87
2023/11/28 03:28:33;;;;;;;76.80;37.30;;;;;;;-2.38;100.00;97036.17;273728;1272;22838;-86
2023/11/28 03:34:34;;;;;;;79.70;38.30;;;;;;;-2.36;100.00;97030.23;273814;1272;22701;-87
2023/11/28 03:40:48;;;;;;;79.30;37.10;;;;;;;-2.35;100.00;97016.98;273575;1270;22964;-86
2023/11/28 03:47:18;;;;;;;73.10;35.40;;;;;;;-2.33;100.00;97007.53;273151;1269;22597;-85
2023/11/28 03:53:23;;;;;;;76.50;37.80;;;;;;;-2.33;100.00;96996.96;273566;1267;22229;-86
2023/11/28 03:59:50;;;;;;;78.50;35.00;;;;;;;-2.33;100.00;96985.70;273780;1267;22346;-87
2023/11/28 04:05:51;;;;;;;71.90;36.10;;;;;;;-2.34;100.00;96972.14;272225;1270;22524;-86
2023/11/28 04:11:53;;;;;;;71.60;35.90;;;;;;;-2.34;100.00;96958.05;272937;1270;22381;-87
2023/11/28 04:18:10;;;;;;;69.00;32.00;;;;;;;-2.34;100.00;96948.48;273177;1268;22275;-88
2023/11/28 04:24:31;;;;;;;70.70;34.40;;;;;;;-2.34;100.00;96936.69;273225;1267;22282;-87
2023/11/28 04:30:34;;;;;;;72.40;32.90;;;;;;;-2.32;100.00;96925.64;272882;1267;22668;-88
2023/11/28 04:36:38;;;;;;;65.10;32.30;;;;;;;-2.28;100.00;96921.08;273155;1268;22516;-87
2023/11/28 04:42:41;;;;;;;63.80;32.10;;;;;;;-2.25;100.00;96911.75;272097;1268;23948;-88
2023/11/28 04:56:22;;;;;;;65.90;30.00;;;;;;;-2.19;100.00;96888.86;273598;1272;22427;-88
2023/11/28 05:02:40;;;;;;;60.60;29.30;;;;;;;-2.17;100.00;96872.37;272772;1267;22641;-87
2023/11/28 05:09:49;;;;;;;59.00;29.60;;;;;;;-2.15;100.00;96857.42;273193;1267;22412;-87
2023/11/28 05:15:51;;;;;;;58.80;27.90;;;;;;;-2.14;100.00;96848.34;271304;1269;22550;-89
2023/11/28 05:22:19;;;;;;;58.60;28.90;;;;;;;-2.12;100.00;96844.08;272797;1267;22225;-88
2023/11/28 05:28:21;;;;;;;52.70;25.70;;;;;;;-2.10;100.00;96828.81;273158;1270;23376;-88
2023/11/28 05:34:22;;;;;;;53.30;27.40;;;;;;;-2.07;100.00;96825.06;273328;1270;22525;-87
2023/11/28 05:40:24;;;;;;;48.40;24.80;;;;;;;-2.03;100.00;96820.89;273465;1268;22215;-87
2023/11/28 05:46:25;;;;;;;50.60;23.80;;;;;;;-2.02;100.00;96811.05;272992;1267;22203;-87
2023/11/28 05:52:32;;;;;;;45.90;23.80;;;;;;;-1.99;100.00;96805.66;273302;1267;23549;-88
2023/11/28 05:58:41;;;;;;;48.80;23.90;;;;;;;-1.97;100.00;96809.62;273445;1267;22488;-87
2023/11/28 06:04:43;;;;;;;48.80;24.50;;;;;;;-1.95;100.00;96808.35;273213;1264;22215;-87
2023/11/28 06:10:47;;;;;;;45.60;24.80;;;;;;;-1.93;100.00;96814.99;273230;1267;22261;-87
2023/11/28 06:16:49;;;;;;;49.80;25.40;;;;;;;-1.91;100.00;96815.52;273301;1267;23247;-86
2023/11/28 06:22:59;;;;;;;51.50;25.70;;;;;;;-1.90;100.00;96806.73;273341;1267;23337;-87
2023/11/28 06:29:00;;;;;;;50.60;25.50;;;;;;;-1.88;100.00;96805.30;273476;1268;22270;-88
2023/11/28 06:35:22;;;;;;;45.70;24.70;;;;;;;-1.86;100.00;96806.73;273304;1267;22187;-86
2023/11/28 06:41:24;;;;;;;53.00;27.30;;;;;;;-1.85;100.00;96805.23;273358;1267;22353;-86
2023/11/28 06:47:29;;;;;;;59.50;29.60;;;;;;;-1.84;100.00;96802.41;273548;1269;22257;-86
2023/11/28 06:53:49;;;;;;;54.20;27.00;;;;;;;-1.81;100.00;96802.04;273745;1267;23405;-86
2023/11/28 06:59:52;;;;;;;53.80;26.30;;;;;;;-1.77;100.00;96793.87;273353;1251;22376;-87
2023/11/28 07:05:55;;;;;;;48.60;24.80;;;;;;;-1.74;100.00;96784.05;273389;1267;23349;-86
2023/11/28 07:11:56;;;;;;;55.40;26.60;;;;;;;-1.70;100.00;96788.95;273085;1267;22364;-87
2023/11/28 07:18:00;;;;;;;48.10;24.60;;;;;;;-1.66;100.00;96787.39;273103;1268;23521;-87
2023/11/28 07:24:15;;;;;;;49.20;23.60;;;;;;;-1.59;100.00;96781.99;273110;1267;23665;-87
2023/11/28 07:30:18;;;;;;;59.70;26.80;;;;;;;-1.54;100.00;96779.50;273303;1267;22309;-87
2023/11/28 07:36:21;;;;;;;54.40;25.10;;;;;;;-1.49;100.00;96778.33;273534;1270;23398;-86
2023/11/28 07:42:23;;;;;;;53.20;24.60;;;;;;;-1.43;100.00;96778.23;273596;1267;22263;-86
2023/11/28 07:48:24;;;;;;;47.20;25.00;;;;;;;-1.37;100.00;96773.68;273511;1267;22477;-86
2023/11/28 07:54:25;;;;;;;48.90;24.30;;;;;;;-1.32;100.00;96771.17;273465;1268;22372;-86
2023/11/28 08:00:29;;;;;;;50.40;24.60;;;;;;;-1.25;100.00;96769.88;273521;1267;22348;-88
2023/11/28 08:06:55;;;;;;;47.80;22.70;;;;;;;-1.16;100.00;96768.59;273164;1266;22189;-87
2023/11/28 08:13:15;;;;;;;46.60;25.00;;;;;;;-1.07;100.00;96761.87;273437;1261;23668;-86
2023/11/28 08:19:47;;;;;;;41.20;22.10;;;;;;;-1.01;100.00;96757.33;272253;1267;22585;-86
2023/11/28 08:25:56;;;;;;;49.20;26.30;;;;;;;-0.94;100.00;96755.92;272700;1266;22269;-86
2023/11/28 08:32:24;;;;;;;62.30;28.40;;;;;;;-0.87;100.00;96754.61;273152;1266;23386;-86
2023/11/28 08:38:25;;;;;;;61.60;30.00;;;;;;;-0.77;100.00;96751.52;273087;1267;22459;-88
2023/11/28 08:45:16;;;;;;;51.90;25.70;;;;;;;-0.70;100.00;96748.81;273327;1267;22306;-87
2023/11/28 08:51:41;;;;;;;47.00;23.40;;;;;;;-0.62;100.00;96749.94;273184;1267;22287;-87
2023/11/28 08:57:46;;;;;;;45.40;23.10;;;;;;;-0.58;100.00;96747.95;273315;1267;22895;-87
2023/11/28 09:03:47;;;;;;;40.30;22.40;;;;;;;-0.51;100.00;96739.79;271838;1267;22676;-87
2023/11/28 09:09:49;;;;;;;44.20;23.30;;;;;;;-0.49;100.00;96736.05;273165;1267;22201;-87
2023/11/28 09:15:51;;;;;;;41.80;22.80;;;;;;;-0.47;100.00;96739.79;273409;1267;23246;-87
2023/11/28 09:21:55;;;;;;;45.00;24.30;;;;;;;-0.47;100.00;96734.79;273523;1269;22233;-86
2023/11/28 09:27:57;;;;;;;46.30;25.20;;;;;;;-0.47;100.00;96728.19;273409;1266;22853;-86
2023/11/28 09:48:54;;;;;;;49.90;24.50;;;;;;;-0.31;100.00;96710.64;273192;1266;22582;-87
2023/11/28 09:55:21;;;;;;;41.90;22.70;;;;;;;-0.30;100.00;96706.50;273085;1268;22229;-87
2023/11/28 10:01:55;;;;;;;46.80;23.10;;;;;;;-0.27;100.00;96693.04;273320;1268;22251;-87
2023/11/28 10:08:22;;;;;;;45.90;25.30;;;;;;;-0.21;100.00;96680.23;273369;1268;22258;-87
2023/11/28 10:14:50;;;;;;;52.90;24.90;;;;;;;-0.19;100.00;96677.02;273431;1267;22195;-88
2023/11/28 10:20:53;;;;;;;50.70;25.50;;;;;;;-0.19;100.00;96674.35;273470;1267;22568;-87
2023/11/28 10:27:00;;;;;;;47.10;24.00;;;;;;;-0.16;100.00;96667.33;273670;1265;22754;-87
2023/11/28 10:33:02;;;;;;;42.60;22.80;;;;;;;-0.13;100.00;96664.46;273530;1267;22278;-87
2023/11/28 10:39:25;;;;;;;46.90;23.80;;;;;;;-0.15;100.00;96658.88;273252;1267;23231;-87
2023/11/28 10:45:38;;;;;;;53.40;25.90;;;;;;;-0.11;100.00;96651.48;273669;1275;22910;-86
2023/11/28 10:52:06;;;;;;;63.40;32.80;;;;;;;-0.07;100.00;96653.33;273985;1273;22210;-88
2023/11/28 10:58:31;;;;;;;69.20;33.80;;;;;;;-0.03;100.00;96652.16;273538;1276;22211;-87
2023/11/28 11:05:06;;;;;;;65.60;30.90;;;;;;;-0.02;100.00;96646.09;273879;1270;22470;-86
2023/11/28 11:11:09;;;;;;;58.60;30.20;;;;;;;-0.02;100.00;96642.80;273570;1268;23190;-87
2023/11/28 11:26:01;;;;;;;57.80;31.20;;;;;;;-0.05;100.00;96645.05;273551;1267;22200;-87
2023/11/28 11:32:55;;;;;;;57.30;29.10;;;;;;;-0.02;100.00;96646.86;272954;1267;22422;-86
2023/11/28 11:39:25;;;;;;;53.10;28.60;;;;;;;-0.01;100.00;96646.42;273329;1268;22310;-87
2023/11/28 11:46:18;;;;;;;58.90;29.00;;;;;;;-0.03;100.00;96651.84;273394;1267;22256;-86
2023/11/28 11:52:32;;;;;;;52.80;29.10;;;;;;;-0.06;100.00;96654.26;273653;1268;22394;-87
2023/11/28 11:59:43;;;;;;;48.60;28.40;;;;;;;-0.09;100.00;96658.23;273653;1267;22277;-87
2023/11/28 12:06:09;;;;;;;53.90;28.50;;;;;;;-0.13;100.00;96661.46;273074;1269;22234;-87
2023/11/28 12:12:40;;;;;;;45.90;25.10;;;;;;;-0.14;100.00;96661.27;273458;1255;22356;-87
2023/11/28 12:19:33;;;;;;;50.10;26.70;;;;;;;-0.15;100.00;96663.88;273577;1267;22220;-87
2023/11/28 12:25:39;;;;;;;40.40;23.40;;;;;;;-0.18;100.00;96661.83;265586;1267;10142682;-87
2023/11/28 12:40:09;;;;;;;39.70;22.30;;;;;;;-0.26;100.00;96673.45;273545;1269;22220;-87
2023/11/28 12:47:12;;;;;;;45.30;23.80;;;;;;;-0.30;100.00;96674.55;273555;1261;22632;-87
2023/11/28 12:53:40;;;;;;;35.70;20.70;;;;;;;-0.32;100.00;96676.22;273205;1267;22291;-87
2023/11/28 13:00:43;;;;;;;37.80;20.70;;;;;;;-0.34;100.00;96682.48;272958;1268;23288;-87
2023/11/28 13:06:46;;;;;;;39.40;21.40;;;;;;;-0.39;100.00;96691.53;272153;1267;22459;-86
2023/11/28 13:20:33;;;;;;;35.80;18.80;;;;;;;-0.35;100.00;96699.05;273791;1269;23577;-86
2023/11/28 13:26:36;;;;;;;38.60;20.70;;;;;;;-0.34;100.00;96705.13;273666;1267;22235;-87
2023/11/28 13:33:17;;;;;;;35.80;20.10;;;;;;;-0.30;100.00;96709.05;273712;1267;22273;-87
2023/11/28 13:39:25;;;;;;;31.10;18.50;;;;;;;-0.30;100.00;96715.34;273541;1267;23353;-87
2023/11/28 13:45:33;;;;;;;30.50;19.40;;;;;;;-0.34;100.00;96722.02;273392;1259;23234;-87
2023/11/28 13:51:36;;;;;;;32.30;18.70;;;;;;;-0.39;100.00;96730.15;273504;1267;22349;-87
2023/11/28 13:57:44;;;;;;;34.90;19.30;;;;;;;-0.43;100.00;96737.38;273585;1268;22471;-86
2023/11/28 14:04:13;;;;;;;33.40;19.40;;;;;;;-0.46;100.00;96746.63;273531;1271;23062;-87
2023/11/28 14:10:41;;;;;;;33.00;19.30;;;;;;;-0.51;100.00;96752.98;273585;1272;22189;-86
2023/11/28 14:16:43;;;;;;;31.90;18.40;;;;;;;-0.57;100.00;96757.55;273576;1265;22163;-86
2023/11/28 14:23:06;;;;;;;30.80;18.70;;;;;;;-0.59;100.00;96759.52;273324;1269;22221;-86
2023/11/28 14:30:01;;;;;;;30.00;17.20;;;;;;;-0.60;100.00;96761.57;273747;1269;22206;-86
2023/11/28 14:36:28;;;;;;;34.00;17.80;;;;;;;-0.63;100.00;96767.75;273462;1276;22200;-86
2023/11/28 14:43:35;;;;;;;28.50;17.70;;;;;;;-0.62;100.00;96779.49;273734;1269;22090;-86
2023/11/28 14:49:37;;;;;;;34.00;19.70;;;;;;;-0.63;100.00;96789.17;273085;1269;22413;-87
2023/11/28 14:55:52;;;;;;;33.70;19.20;;;;;;;-0.64;100.00;96792.44;273820;1270;22187;-86
2023/11/28 15:01:56;;;;;;;35.50;19.70;;;;;;;-0.63;100.00;96798.67;273172;1269;22400;-86
2023/11/28 15:07:59;;;;;;;38.60;20.00;;;;;;;-0.64;100.00;96805.10;273440;1271;22201;-87
2023/11/28 15:14:01;;;;;;;37.90;19.50;;;;;;;-0.66;100.00;96816.34;273158;1269;23238;-87
2023/11/28 15:20:59;;;;;;;33.60;18.00;;;;;;;-0.68;100.00;96824.14;273073;1269;22371;-87
2023/11/28 15:27:01;;;;;;;37.40;19.10;;;;;;;-0.70;100.00;96830.71;273130;1269;22373;-87
2023/11/28 15:40:58;;;;;;;32.30;18.70;;;;;;;-0.72;100.00;96842.72;273102;1268;23348;-87
2023/11/28 15:47:25;;;;;;;47.70;20.90;;;;;;;-0.75;100.00;96854.33;273275;1267;22486;-87
2023/11/28 15:54:26;;;;;;;30.00;17.70;;;;;;;-0.77;100.00;96866.86;273281;1269;22306;-87
2023/11/28 16:08:16;;;;;;;44.20;19.40;;;;;;;-0.81;100.00;96870.85;273439;1267;22837;-86
2023/11/28 16:14:47;;;;;;;44.40;20.30;;;;;;;-0.85;100.00;96883.97;273475;1275;22188;-87
2023/11/28 16:21:09;;;;;;;36.50;19.00;;;;;;;-0.86;100.00;96892.15;273304;1270;23420;-86
2023/11/28 16:28:13;;;;;;;32.90;18.40;;;;;;;-0.87;100.00;96900.66;273516;1273;22192;-86
2023/11/28 16:35:06;;;;;;;34.60;18.40;;;;;;;-0.89;100.00;96918.26;273578;1267;23868;-87
2023/11/28 16:41:14;;;;;;;44.20;20.30;;;;;;;-0.92;100.00;96934.45;273650;1268;22224;-86
2023/11/28 16:48:07;;;;;;;37.40;20.50;;;;;;;-0.91;100.00;96946.53;273586;1268;22316;-86
2023/11/28 16:54:35;;;;;;;39.20;20.60;;;;;;;-0.93;100.00;96960.92;273354;1266;23442;-87
2023/11/28 17:00:36;;;;;;;44.50;20.70;;;;;;;-0.94;100.00;96976.77;272175;1268;23153;-86
2023/11/28 17:06:39;;;;;;;41.70;21.00;;;;;;;-0.95;100.00;96985.89;271195;1268;22641;-86
2023/11/28 17:12:53;;;;;;;44.60;22.60;;;;;;;-0.95;100.00;96996.39;270883;1267;25310;-86
2023/11/28 17:19:13;;;;;;;40.00;21.50;;;;;;;-0.97;100.00;97004.79;272805;1268;23160;-87
2023/11/28 17:25:15;;;;;;;47.30;23.70;;;;;;;-1.01;100.00;97009.35;272031;1267;23407;-87
2023/11/28 17:31:17;;;;;;;58.70;25.90;;;;;;;-1.06;100.00;97015.67;272706;1268;23205;-87
2023/11/28 17:37:19;;;;;;;41.90;22.50;;;;;;;-1.13;100.00;97026.05;272915;1269;22489;-86
2023/11/28 17:43:25;;;;;;;40.10;21.00;;;;;;;-1.15;100.00;97034.11;273490;1267;22403;-87
2023/11/28 17:49:28;;;;;;;56.00;26.00;;;;;;;-1.17;100.00;97032.30;273327;1268;23354;-86
2023/11/28 17:55:55;;;;;;;52.60;28.00;;;;;;;-1.16;100.00;97036.92;273664;1267;24327;-86
2023/11/28 18:02:47;;;;;;;60.90;28.40;;;;;;;-1.19;100.00;97040.08;273622;1269;22205;-88
2023/11/28 18:09:14;;;;;;;62.10;28.10;;;;;;;-1.22;100.00;97049.89;273926;1273;22486;-87
2023/11/28 18:15:41;;;;;;;58.10;28.40;;;;;;;-1.28;100.00;97059.64;273454;1268;22206;-87
2023/11/28 18:21:44;;;;;;;56.10;26.00;;;;;;;-1.33;100.00;97071.63;273333;1266;22374;-87
2023/11/28 18:27:50;;;;;;;53.10;24.60;;;;;;;-1.36;100.00;97077.52;273285;1266;22361;-87
2023/11/28 18:34:50;;;;;;;56.40;27.90;;;;;;;-1.38;100.00;97085.38;273327;1268;23598;-87
2023/11/28 18:41:13;;;;;;;63.20;28.50;;;;;;;-1.39;100.00;97102.52;272324;1267;22573;-87
2023/11/28 18:47:45;;;;;;;59.50;28.20;;;;;;;-1.42;100.00;97114.86;273357;1269;22409;-87
2023/11/28 18:54:08;;;;;;;78.50;32.30;;;;;;;-1.44;100.00;97124.60;272634;1269;23639;-87
2023/11/28 19:00:36;;;;;;;61.10;29.70;;;;;;;-1.46;100.00;97142.97;272654;1269;22235;-87
2023/11/28 19:07:05;;;;;;;62.70;29.10;;;;;;;-1.47;100.00;97155.81;272756;1268;22183;-87
2023/11/28 19:13:11;;;;;;;76.40;33.80;;;;;;;-1.50;100.00;97171.45;273407;1269;22302;-87
2023/11/28 19:19:39;;;;;;;86.10;36.20;;;;;;;-1.51;100.00;97188.67;273398;1268;22187;-87
2023/11/28 19:25:59;;;;;;;75.00;35.60;;;;;;;-1.51;100.00;97203.84;273680;1275;21994;-87
2023/11/28 19:47:14;;;;;;;60.90;30.80;;;;;;;-1.55;100.00;97237.29;273500;1268;23498;-88
2023/11/28 19:53:43;;;;;;;;;;;;;;;-1.54;100.00;97248.20;273157;1269;22478;-87
2023/11/28 20:00:10;;;;;;;60.50;26.80;;;;;;;-1.61;100.00;97257.39;273426;1268;22557;-89
2023/11/28 20:06:39;;;;;;;61.50;26.30;;;;;;;-1.66;100.00;97267.13;273639;1269;23043;-87
2023/11/28 20:13:31;;;;;;;57.40;26.10;;;;;;;-1.73;100.00;97281.48;273535;1270;22193;-87
2023/11/28 20:20:01;;;;;;;57.20;25.20;;;;;;;-1.77;100.00;97289.62;273618;1268;23077;-88
2023/11/28 20:26:04;;;;;;;62.00;26.90;;;;;;;-1.80;100.00;97306.69;273242;1267;22258;-87
2023/11/28 20:32:10;;;;;;;69.70;28.80;;;;;;;-1.82;100.00;97321.70;273221;1260;22339;-87
2023/11/28 20:38:13;;;;;;;42.20;19.40;;;;;;;-1.81;100.00;97333.17;272496;1267;22288;-87
2023/11/28 20:44:40;;;;;;;55.30;25.70;;;;;;;-1.81;100.00;97345.90;272451;1267;22550;-87
2023/11/28 20:51:08;;;;;;;43.90;23.40;;;;;;;-1.81;100.00;97358.20;273411;1268;23452;-87
2023/11/28 20:58:01;;;;;;;50.00;23.90;;;;;;;-1.83;100.00;97364.00;273507;1270;22179;-87
2023/11/28 21:04:05;;;;;;;57.70;25.60;;;;;;;-1.86;100.00;97370.70;273392;1276;22176;-87
2023/11/28 21:10:21;;;;;;;50.40;23.20;;;;;;;-1.90;100.00;97382.52;273592;1272;22179;-87
2023/11/28 21:17:11;;;;;;;57.10;24.10;;;;;;;-1.91;100.00;97389.91;273766;1275;22291;-87
2023/11/28 21:23:41;;;;;;;39.00;19.70;;;;;;;-1.90;100.00;97403.46;273665;1267;22160;-88
2023/11/28 21:30:39;;;;;;;43.00;20.70;;;;;;;-1.94;100.00;97410.44;273942;1267;22277;-87
2023/11/28 21:36:41;;;;;;;41.90;21.20;;;;;;;-2.00;100.00;97425.09;273607;1272;22180;-87
2023/11/28 21:50:19;;;;;;;51.30;22.90;;;;;;;-2.06;100.00;97446.72;273611;1254;22192;-87
2023/11/28 22:04:15;;;;;;;;;;;;;;;-2.14;100.00;97467.74;273844;1275;22376;-87
2023/11/28 22:18:38;;;;;;;45.40;22.10;;;;;;;-2.15;100.00;97501.56;272089;1269;22746;-87
2023/11/28 22:25:17;;;;;;;46.80;22.00;;;;;;;-2.11;100.00;97514.19;273363;1270;22218;-87
2023/11/28 22:31:19;;;;;;;44.90;22.20;;;;;;;-2.10;100.00;97530.23;272291;1269;22560;-86
2023/11/28 22:37:47;;;;;;;47.60;24.10;;;;;;;-2.10;100.00;97541.42;273736;1268;22281;-87
2023/11/28 22:44:40;;;;;;;49.30;23.70;;;;;;;-2.09;100.00;97557.07;272118;1261;22734;-88
2023/11/28 22:50:42;;;;;;;49.20;23.80;;;;;;;-2.16;100.00;97573.23;271188;1268;23677;-87
2023/11/28 23:19:41;;;;;;;38.10;17.60;;;;;;;-2.44;100.00;97623.64;273380;1261;22263;-87
2023/11/28 23:40:48;;;;;;;38.70;17.40;;;;;;;-2.58;100.00;97653.94;272019;1270;22456;-88
2023/11/28 23:46:50;;;;;;;36.10;18.40;;;;;;;-2.63;100.00;97656.14;272168;1276;23137;-88
2023/11/28 23:53:20;;;;;;;38.20;19.10;;;;;;;-2.65;100.00;97662.77;271633;1275;23046;-88
2023/11/28 23:59:23;;;;;;;38.20;18.40;;;;;;;-2.67;100.00;97663.79;272149;1275;22281;-88
